createdAt,value
2023-12-12T00:00:47.777Z,96469.05
2023-12-12T00:03:39.187Z,96474.20
2023-12-12T00:06:08.512Z,96477.45
2023-12-12T00:08:35.571Z,96475.93
2023-12-12T00:11:17.867Z,96480.60
2023-12-12T00:13:50.624Z,96482.02
2023-12-12T00:16:35.924Z,96486.26
2023-12-12T00:19:08.603Z,96487.61
2023-12-12T00:21:55.453Z,96488.67
2023-12-12T00:24:27.652Z,96490.55
2023-12-12T00:26:54.768Z,96495.06
2023-12-12T00:29:22.518Z,96498.05
2023-12-12T00:31:50.122Z,96505.04
2023-12-12T00:34:23.045Z,96507.97
2023-12-12T00:36:50.258Z,96510.00
2023-12-12T00:39:19.691Z,96509.12
2023-12-12T00:41:49.138Z,96512.36
2023-12-12T00:44:38.234Z,96521.05
2023-12-12T00:47:08.589Z,96525.16
2023-12-12T00:49:35.556Z,96524.83
2023-12-12T00:52:23.410Z,96525.23
2023-12-12T00:55:05.874Z,96523.13
2023-12-12T00:57:52.920Z,96531.94
2023-12-12T01:00:23.658Z,96536.46
2023-12-12T01:03:10.887Z,96535.17
2023-12-12T01:05:57.690Z,96538.48
2023-12-12T01:08:46.014Z,96539.27
2023-12-12T01:11:13.894Z,96545.64
2023-12-12T01:14:21.167Z,96542.21
2023-12-12T01:17:10.256Z,96543.95
2023-12-12T01:19:46.023Z,96543.26
2023-12-12T01:22:32.892Z,96546.38
2023-12-12T01:25:04.770Z,96550.31
2023-12-12T01:27:35.176Z,96550.52
2023-12-12T01:30:06.936Z,96555.79
2023-12-12T01:32:35.793Z,96553.83
2023-12-12T01:35:05.534Z,96556.35
2023-12-12T01:37:46.053Z,96563.92
2023-12-12T01:40:14.175Z,96567.63
2023-12-12T01:42:50.134Z,96568.09
2023-12-12T01:45:20.005Z,96564.30
2023-12-12T01:47:48.548Z,96569.31
2023-12-12T01:50:35.628Z,96572.35
2023-12-12T01:53:45.245Z,96577.30
2023-12-12T01:56:33.459Z,96582.95
2023-12-12T01:59:02.190Z,96585.59
2023-12-12T02:02:10.602Z,96589.42
2023-12-12T02:04:57.851Z,96584.36
2023-12-12T02:07:31.102Z,96586.23
2023-12-12T02:10:04.024Z,96586.00
2023-12-12T02:12:37.351Z,96586.98
2023-12-12T02:15:07.093Z,96593.45
2023-12-12T02:17:35.852Z,96594.66
2023-12-12T02:20:16.247Z,96591.98
2023-12-12T02:22:44.521Z,96595.15
2023-12-12T02:25:23.655Z,96587.92
2023-12-12T02:28:01.245Z,96590.55
2023-12-12T02:30:31.234Z,96591.84
2023-12-12T02:33:00.382Z,96595.77
2023-12-12T02:35:50.034Z,96599.91
2023-12-12T02:38:25.572Z,96603.98
2023-12-12T02:40:54.934Z,96602.71
2023-12-12T02:43:26.243Z,96603.77
2023-12-12T02:46:03.565Z,96600.58
2023-12-12T02:48:32.977Z,96602.64
2023-12-12T02:50:59.983Z,96602.84
2023-12-12T02:53:29.612Z,96603.39
2023-12-12T02:55:57.954Z,96605.48
2023-12-12T02:58:25.280Z,96605.45
2023-12-12T03:01:14.319Z,96609.73
2023-12-12T03:04:02.203Z,96607.95
2023-12-12T03:06:30.965Z,96610.57
2023-12-12T03:08:57.697Z,96610.42
2023-12-12T03:11:25.652Z,96615.19
2023-12-12T03:13:52.574Z,96614.14
2023-12-12T03:16:19.457Z,96616.66
2023-12-12T03:18:47.956Z,96624.98
2023-12-12T03:21:17.184Z,96628.03
2023-12-12T03:23:44.472Z,96630.42
2023-12-12T03:26:11.473Z,96628.91
2023-12-12T03:28:39.063Z,96630.46
2023-12-12T03:31:07.427Z,96634.70
2023-12-12T03:33:34.792Z,96636.29
2023-12-12T03:36:06.422Z,96637.86
2023-12-12T03:38:33.101Z,96641.23
2023-12-12T03:40:59.900Z,96639.50
2023-12-12T03:43:26.822Z,96645.80
2023-12-12T03:45:53.735Z,96650.33
2023-12-12T03:48:20.778Z,96649.67
2023-12-12T03:51:07.549Z,96648.48
2023-12-12T03:53:34.382Z,96649.79
2023-12-12T03:56:01.775Z,96647.08
2023-12-12T03:58:28.777Z,96641.90
2023-12-12T04:00:55.723Z,96650.56
2023-12-12T04:03:23.688Z,96644.29
2023-12-12T04:05:51.416Z,96646.04
2023-12-12T04:08:18.534Z,96645.77
2023-12-12T04:10:45.318Z,96651.50
2023-12-12T04:13:12.144Z,96645.54
2023-12-12T04:15:39.097Z,96651.39
2023-12-12T04:18:05.974Z,96649.39
2023-12-12T04:20:32.830Z,96648.98
2023-12-12T04:22:59.995Z,96651.17
2023-12-12T04:25:26.960Z,96654.02
2023-12-12T04:27:54.139Z,96654.00
2023-12-12T04:30:21.133Z,96661.55
2023-12-12T04:32:47.860Z,96659.04
2023-12-12T04:35:15.980Z,96663.73
2023-12-12T04:37:42.888Z,96669.16
2023-12-12T04:40:10.096Z,96672.77
2023-12-12T04:42:36.845Z,96675.64
2023-12-12T04:45:04.125Z,96682.19
2023-12-12T04:47:31.292Z,96684.82
2023-12-12T04:49:59.000Z,96687.65
2023-12-12T04:52:26.009Z,96693.21
2023-12-12T04:54:52.784Z,96694.44
2023-12-12T04:57:19.846Z,96695.34
2023-12-12T04:59:47.022Z,96696.06
2023-12-12T05:02:13.767Z,96694.65
2023-12-12T05:04:40.614Z,96697.21
2023-12-12T05:07:07.452Z,96706.14
2023-12-12T05:09:34.129Z,96705.29
2023-12-12T05:12:03.634Z,96704.48
2023-12-12T05:14:30.365Z,96710.33
2023-12-12T05:17:04.509Z,96716.52
2023-12-12T05:19:37.411Z,96722.84
2023-12-12T05:22:04.822Z,96726.89
2023-12-12T05:24:31.618Z,96729.00
2023-12-12T05:26:58.615Z,96735.70
2023-12-12T05:29:28.912Z,96733.85
2023-12-12T05:31:55.790Z,96733.93
2023-12-12T05:34:27.828Z,96740.08
2023-12-12T05:36:55.129Z,96749.91
2023-12-12T05:39:22.200Z,96753.48
2023-12-12T05:41:49.299Z,96758.96
2023-12-12T05:44:16.006Z,96761.81
2023-12-12T05:46:43.188Z,96768.59
2023-12-12T05:49:10.834Z,96771.52
2023-12-12T05:51:39.035Z,96775.31
2023-12-12T05:54:06.105Z,96770.19
2023-12-12T05:56:47.591Z,96770.90
2023-12-12T05:59:16.160Z,96770.98
2023-12-12T06:01:47.481Z,96776.13
2023-12-12T06:04:35.754Z,96784.86
2023-12-12T06:07:02.837Z,96785.75
2023-12-12T06:09:51.944Z,96795.72
2023-12-12T06:12:33.050Z,96802.17
2023-12-12T06:15:10.671Z,96804.55
2023-12-12T06:17:41.622Z,96808.67
2023-12-12T06:20:09.760Z,96810.44
2023-12-12T06:22:40.961Z,96814.25
2023-12-12T06:25:08.443Z,96816.55
2023-12-12T06:27:38.443Z,96817.55
2023-12-12T06:30:06.548Z,96818.45
2023-12-12T06:32:33.610Z,96815.23
2023-12-12T06:35:00.547Z,96822.45
2023-12-12T06:37:27.457Z,96826.27
2023-12-12T06:39:54.591Z,96828.75
2023-12-12T06:42:21.549Z,96831.45
2023-12-12T06:44:50.879Z,96834.26
2023-12-12T06:47:18.958Z,96840.39
2023-12-12T06:49:47.193Z,96842.25
2023-12-12T06:52:16.113Z,96841.04
2023-12-12T06:54:43.066Z,96842.44
2023-12-12T06:57:14.317Z,96845.86
2023-12-12T06:59:46.854Z,96850.15
2023-12-12T07:02:20.021Z,96858.33
2023-12-12T07:04:47.560Z,96859.85
2023-12-12T07:07:21.464Z,96863.09
2023-12-12T07:09:58.924Z,96868.95
2023-12-12T07:12:28.510Z,96875.65
2023-12-12T07:14:55.771Z,96878.27
2023-12-12T07:38:21.130Z,96902.00
2023-12-12T07:40:48.135Z,96906.64
2023-12-12T07:43:16.253Z,96913.92
2023-12-12T07:45:43.295Z,96918.73
2023-12-12T07:48:10.390Z,96918.95
2023-12-12T07:50:41.008Z,96924.52
2023-12-12T07:53:07.838Z,96925.16
2023-12-12T07:55:34.688Z,96925.27
2023-12-12T07:58:02.394Z,96929.73
2023-12-12T08:00:29.149Z,96935.70
2023-12-12T08:02:55.944Z,96935.41
2023-12-12T08:05:22.662Z,96938.00
2023-12-12T08:07:49.595Z,96935.91
2023-12-12T08:10:18.879Z,96936.40
2023-12-12T08:12:46.998Z,96935.05
2023-12-12T08:15:14.081Z,96935.54
2023-12-12T08:17:41.174Z,96939.42
2023-12-12T08:20:08.810Z,96940.83
2023-12-12T08:22:38.095Z,96945.41
2023-12-12T08:25:06.620Z,96948.36
2023-12-12T08:27:33.578Z,96953.68
2023-12-12T08:30:07.343Z,96952.67
2023-12-12T08:32:36.763Z,96958.13
2023-12-12T08:35:07.307Z,96962.91
2023-12-12T08:37:35.117Z,96958.85
2023-12-12T08:40:02.041Z,96960.23
2023-12-12T08:42:28.808Z,96960.75
2023-12-12T08:44:56.338Z,96967.00
2023-12-12T08:47:23.720Z,96966.08
2023-12-12T08:49:51.364Z,96967.31
2023-12-12T08:52:18.460Z,96970.25
2023-12-12T08:54:45.508Z,96965.94
2023-12-12T08:57:13.117Z,96968.06
2023-12-12T08:59:39.997Z,96972.50
2023-12-12T09:02:06.695Z,96977.23
2023-12-12T09:04:34.041Z,96981.05
2023-12-12T09:07:00.918Z,96977.53
2023-12-12T09:09:27.763Z,96978.26
2023-12-12T09:11:54.775Z,96976.44
2023-12-12T09:14:21.567Z,96975.73
2023-12-12T09:16:48.242Z,96980.13
2023-12-12T09:19:15.069Z,96979.58
2023-12-12T09:21:41.941Z,96978.22
2023-12-12T09:24:09.138Z,96978.61
2023-12-12T09:26:39.132Z,96981.52
2023-12-12T09:29:06.004Z,96980.20
2023-12-12T09:31:35.376Z,96975.91
2023-12-12T09:34:02.743Z,96978.56
2023-12-12T09:36:31.967Z,96976.21
2023-12-12T09:38:59.800Z,96976.87
2023-12-12T09:41:30.471Z,96977.89
2023-12-12T09:43:58.158Z,96976.14
2023-12-12T09:46:25.786Z,96973.95
2023-12-12T09:48:55.070Z,96971.84
2023-12-12T09:51:24.723Z,96965.10
2023-12-12T09:53:55.008Z,96967.08
2023-12-12T09:56:21.771Z,96970.40
2023-12-12T09:58:49.500Z,96970.71
2023-12-12T10:01:20.526Z,96973.30
2023-12-12T10:03:48.245Z,96971.42
2023-12-12T10:06:17.649Z,96971.63
2023-12-12T10:08:44.504Z,96971.03
2023-12-12T10:11:11.118Z,96974.33
2023-12-12T10:13:50.901Z,96978.23
2023-12-12T10:16:17.822Z,96977.88
2023-12-12T10:18:45.786Z,96976.88
2023-12-12T10:21:23.065Z,96981.06
2023-12-12T10:23:51.820Z,96982.77
2023-12-12T10:26:32.295Z,96981.44
2023-12-12T10:29:04.151Z,96986.45
2023-12-12T10:31:30.758Z,96994.02
2023-12-12T10:34:00.652Z,96994.60
2023-12-12T10:36:28.089Z,96993.62
2023-12-12T10:38:54.906Z,96997.42
2023-12-12T10:41:25.536Z,96998.23
2023-12-12T10:43:55.797Z,96992.89
2023-12-12T10:46:26.056Z,96997.39
2023-12-12T10:48:54.880Z,96989.23
2023-12-12T10:51:24.552Z,96996.31
2023-12-12T10:53:53.272Z,96996.52
2023-12-12T10:56:29.734Z,96999.89
2023-12-12T10:59:54.980Z,97001.67
2023-12-12T11:01:48.027Z,97006.64
2023-12-12T11:04:17.923Z,97005.36
2023-12-12T11:06:48.226Z,97008.55
2023-12-12T11:09:15.682Z,97012.54
2023-12-12T11:11:48.161Z,97008.10
2023-12-12T11:14:17.190Z,97011.75
2023-12-12T11:16:50.753Z,97011.89
2023-12-12T11:19:18.695Z,97013.48
2023-12-12T11:21:50.619Z,97010.59
2023-12-12T11:24:20.096Z,97013.37
2023-12-12T11:26:48.412Z,97010.84
2023-12-12T11:29:23.821Z,97015.00
2023-12-12T11:31:58.326Z,97015.09
2023-12-12T11:34:25.377Z,97014.61
2023-12-12T11:36:52.978Z,97017.48
2023-12-12T11:39:45.310Z,97015.42
2023-12-12T11:42:19.918Z,97018.56
2023-12-12T11:44:52.500Z,97016.12
2023-12-12T11:47:24.436Z,97015.66
2023-12-12T11:50:28.823Z,97015.98
2023-12-12T11:52:58.330Z,97012.71
2023-12-12T11:55:27.208Z,97010.23
2023-12-12T11:57:58.681Z,97014.16
2023-12-12T12:00:25.370Z,97015.56
2023-12-12T12:02:52.068Z,97018.41
2023-12-12T12:05:19.478Z,97021.62
2023-12-12T12:07:46.688Z,97023.81
2023-12-12T12:10:19.578Z,97023.87
2023-12-12T12:12:59.036Z,97026.66
2023-12-12T12:15:26.848Z,97028.81
2023-12-12T12:18:26.575Z,97026.92
2023-12-12T12:20:54.045Z,97023.23
2023-12-12T12:23:21.365Z,97027.31
2023-12-12T12:25:48.362Z,97024.27
2023-12-12T12:28:15.216Z,97020.44
2023-12-12T12:30:48.268Z,97017.20
2023-12-12T12:33:15.262Z,97017.27
2023-12-12T12:35:51.720Z,97012.17
2023-12-12T12:38:29.206Z,97003.95
2023-12-12T12:40:56.061Z,97006.02
2023-12-12T12:43:23.088Z,97005.31
2023-12-12T12:45:50.820Z,97005.73
2023-12-12T12:48:20.566Z,97005.58
2023-12-12T12:50:49.867Z,97007.68
2023-12-12T12:53:17.151Z,97010.82
2023-12-12T12:55:44.657Z,97008.83
2023-12-12T12:58:12.762Z,97012.22
2023-12-12T13:00:43.188Z,97011.24
2023-12-12T13:03:12.872Z,97012.24
2023-12-12T13:05:39.765Z,97010.21
2023-12-12T13:08:06.564Z,97009.85
2023-12-12T13:10:43.082Z,97008.02
2023-12-12T13:13:14.922Z,97009.12
2023-12-12T13:15:41.713Z,97010.38
2023-12-12T13:18:08.428Z,97011.23
2023-12-12T13:20:35.393Z,97015.38
2023-12-12T13:23:02.147Z,97015.05
2023-12-12T13:25:29.736Z,97008.79
2023-12-12T13:27:56.486Z,97010.92
2023-12-12T13:30:23.231Z,97012.48
2023-12-12T13:32:50.084Z,97007.20
2023-12-12T13:35:27.134Z,97005.59
2023-12-12T13:38:02.220Z,97004.84
2023-12-12T13:40:29.068Z,97004.05
2023-12-12T13:42:55.868Z,97003.70
2023-12-12T13:45:22.600Z,97000.07
2023-12-12T13:47:49.575Z,97004.45
2023-12-12T13:50:16.466Z,97003.51
2023-12-12T13:52:45.515Z,97000.98
2023-12-12T13:55:12.222Z,96999.95
2023-12-12T13:57:42.966Z,96997.33
2023-12-12T14:00:10.938Z,96998.85
2023-12-12T14:03:13.896Z,96999.05
2023-12-12T14:05:40.890Z,96997.06
2023-12-12T14:08:07.791Z,96996.09
2023-12-12T14:10:35.905Z,96994.87
2023-12-12T14:13:03.791Z,96994.47
2023-12-12T14:15:30.524Z,96992.09
2023-12-12T14:17:57.536Z,96996.84
2023-12-12T14:20:24.337Z,97001.91
2023-12-12T14:25:22.249Z,96999.15
2023-12-12T14:27:49.143Z,96995.95
2023-12-12T14:30:17.770Z,96995.59
2023-12-12T14:32:44.732Z,96994.83
2023-12-12T14:35:11.647Z,96993.67
2023-12-12T14:37:38.653Z,96990.68
2023-12-12T14:40:06.556Z,96986.23
2023-12-12T14:42:33.939Z,96989.89
2023-12-12T14:45:01.302Z,96993.42
2023-12-12T14:47:28.191Z,96998.65
2023-12-12T14:49:55.020Z,96994.60
2023-12-12T14:52:22.313Z,96997.08
2023-12-12T14:54:49.040Z,96998.92
2023-12-12T14:57:20.581Z,97000.37
2023-12-12T14:59:48.988Z,97006.17
2023-12-12T15:02:18.552Z,97001.45
2023-12-12T15:04:48.432Z,97000.67
2023-12-12T15:07:35.715Z,97001.95
2023-12-12T15:10:02.905Z,97001.08
2023-12-12T15:12:34.889Z,97005.27
2023-12-12T15:15:02.906Z,97000.63
2023-12-12T15:17:29.757Z,96996.48
2023-12-12T15:19:56.667Z,96995.86
2023-12-12T15:22:23.723Z,96994.05
2023-12-12T15:24:52.957Z,96991.98
2023-12-12T15:27:19.656Z,96991.59
2023-12-12T15:29:46.376Z,96989.98
2023-12-12T15:32:13.127Z,96988.06
2023-12-12T15:34:39.999Z,96992.92
2023-12-12T15:37:07.058Z,96995.23
2023-12-12T15:39:34.567Z,96993.08
2023-12-12T15:42:01.471Z,96992.63
2023-12-12T15:44:28.247Z,96990.82
2023-12-12T15:46:55.613Z,96992.83
2023-12-12T15:49:22.542Z,96993.08
2023-12-12T15:51:52.229Z,96998.58
2023-12-12T15:54:18.965Z,96997.67
2023-12-12T15:56:45.775Z,96997.38
2023-12-12T15:59:13.980Z,96996.54
2023-12-12T16:01:43.222Z,96992.10
2023-12-12T16:04:12.589Z,96992.14
2023-12-12T16:06:39.471Z,96991.75
2023-12-12T16:09:06.216Z,96985.46
2023-12-12T16:11:33.306Z,96986.89
2023-12-12T16:14:01.370Z,96985.43
2023-12-12T16:16:28.124Z,96981.52
2023-12-12T16:18:55.115Z,96979.78
2023-12-12T16:21:21.970Z,96980.80
2023-12-12T16:23:48.837Z,96979.35
2023-12-12T16:26:18.059Z,96972.17
2023-12-12T16:28:44.888Z,96973.71
2023-12-12T16:31:13.269Z,96970.59
2023-12-12T16:33:40.100Z,96969.80
2023-12-12T16:36:07.209Z,96978.06
2023-12-12T16:38:34.015Z,96976.91
2023-12-12T16:41:00.827Z,96978.34
2023-12-12T16:43:30.946Z,96980.27
2023-12-12T16:46:00.160Z,96986.70
2023-12-12T16:48:27.249Z,96981.33
2023-12-12T16:50:54.332Z,96979.17
2023-12-12T16:53:22.560Z,96978.02
2023-12-12T16:55:52.103Z,96976.87
2023-12-12T16:58:24.680Z,96973.83
2023-12-12T17:00:53.014Z,96974.77
2023-12-12T17:03:20.501Z,96979.06
2023-12-12T17:05:53.335Z,96973.95
2023-12-12T17:08:20.129Z,96973.30
2023-12-12T17:10:47.244Z,96974.69
2023-12-12T17:13:14.609Z,96976.13
2023-12-12T17:15:41.274Z,96975.19
2023-12-12T17:18:08.088Z,96974.86
2023-12-12T17:20:37.486Z,96969.94
2023-12-12T17:23:04.458Z,96963.40
2023-12-12T17:25:33.349Z,96955.34
2023-12-12T17:28:00.101Z,96952.58
2023-12-12T17:30:26.925Z,96949.51
2023-12-12T17:32:53.611Z,96951.46
2023-12-12T17:35:20.319Z,96952.52
2023-12-12T17:37:47.130Z,96952.21
2023-12-12T17:40:13.988Z,96945.85
2023-12-12T17:42:40.907Z,96943.23
2023-12-12T17:45:10.276Z,96939.83
2023-12-12T17:47:37.992Z,96942.83
2023-12-12T17:50:06.238Z,96944.27
2023-12-12T17:52:33.092Z,96944.33
2023-12-12T17:54:59.817Z,96939.45
2023-12-12T17:57:26.685Z,96940.41
2023-12-12T17:59:53.645Z,96943.98
2023-12-12T18:02:21.331Z,96941.09
2023-12-12T18:04:48.272Z,96938.38
2023-12-12T18:07:15.238Z,96935.14
2023-12-12T18:09:42.107Z,96930.13
2023-12-12T18:12:08.972Z,96926.34
2023-12-12T18:14:35.653Z,96929.41
2023-12-12T18:17:05.304Z,96931.22
2023-12-12T18:19:32.104Z,96929.52
2023-12-12T18:21:59.371Z,96930.55
2023-12-12T18:24:26.777Z,96930.61
2023-12-12T18:26:53.542Z,96929.09
2023-12-12T18:29:21.463Z,96930.48
2023-12-12T18:31:48.905Z,96929.42
2023-12-12T18:34:16.246Z,96938.80
2023-12-12T18:36:43.192Z,96941.54
2023-12-12T18:39:10.172Z,96938.65
2023-12-12T18:41:42.433Z,96937.89
2023-12-12T18:44:09.462Z,96932.37
2023-12-12T18:46:38.587Z,96924.68
2023-12-12T18:49:05.865Z,96923.98
2023-12-12T18:51:32.991Z,96920.38
2023-12-12T18:54:15.376Z,96916.16
2023-12-12T18:56:42.196Z,96917.08
2023-12-12T18:59:09.063Z,96909.71
2023-12-12T19:01:36.021Z,96909.63
2023-12-12T19:04:03.188Z,96908.48
2023-12-12T19:06:32.910Z,96908.02
2023-12-12T19:09:00.675Z,96908.52
2023-12-12T19:11:27.430Z,96908.95
2023-12-12T19:14:03.316Z,96902.13
2023-12-12T19:16:32.709Z,96897.77
2023-12-12T19:18:59.854Z,96895.59
2023-12-12T19:21:26.781Z,96894.40
2023-12-12T19:23:56.731Z,96896.99
2023-12-12T19:26:29.046Z,96899.80
2023-12-12T19:28:56.415Z,96900.38
2023-12-12T19:31:25.527Z,96902.69
2023-12-12T19:33:52.908Z,96909.09
2023-12-12T19:36:25.505Z,96912.77
2023-12-12T19:38:57.006Z,96913.81
2023-12-12T19:41:38.612Z,96912.25
2023-12-12T19:44:07.214Z,96906.38
2023-12-12T19:46:37.582Z,96904.70
2023-12-12T19:49:08.117Z,96897.48
2023-12-12T19:51:55.198Z,96891.81
2023-12-12T19:54:22.432Z,96885.13
2023-12-12T19:56:51.470Z,96877.50
2023-12-12T19:59:19.486Z,96874.27
2023-12-12T20:01:49.080Z,96879.55
2023-12-12T20:04:16.371Z,96881.75
2023-12-12T20:06:45.606Z,96875.77
2023-12-12T20:09:13.917Z,96872.77
2023-12-12T20:11:42.945Z,96872.23
2023-12-12T20:14:09.970Z,96875.48
2023-12-12T20:16:41.617Z,96873.94
2023-12-12T20:19:08.640Z,96868.97
2023-12-12T20:21:36.037Z,96874.30
2023-12-12T20:24:04.230Z,96877.30
2023-12-12T20:26:31.054Z,96881.95
2023-12-12T20:28:57.983Z,96892.26
2023-12-12T20:31:25.110Z,96895.09
2023-12-12T20:33:52.071Z,96901.33
2023-12-12T20:36:18.855Z,96907.98
2023-12-12T20:38:53.997Z,96906.13
2023-12-12T20:41:22.985Z,96911.23
2023-12-12T20:43:49.908Z,96916.08
2023-12-12T20:46:17.822Z,96913.13
2023-12-12T20:48:44.901Z,96917.70
2023-12-12T20:51:11.718Z,96920.18
2023-12-12T20:53:38.693Z,96912.87
2023-12-12T20:56:10.533Z,96913.83
2023-12-12T20:58:49.234Z,96900.46
2023-12-12T21:01:26.237Z,96890.29
2023-12-12T21:03:53.139Z,96883.78
2023-12-12T21:06:23.272Z,96878.38
2023-12-12T21:08:54.731Z,96877.52
2023-12-12T21:11:27.279Z,96866.69
2023-12-12T21:14:03.725Z,96857.31
2023-12-12T21:16:46.932Z,96856.70
2023-12-12T21:19:16.518Z,96856.41
2023-12-12T21:21:48.510Z,96859.42
2023-12-12T21:24:20.517Z,96851.44
2023-12-12T21:26:49.184Z,96858.13
2023-12-12T21:29:15.870Z,96858.02
2023-12-12T21:31:42.898Z,96856.58
2023-12-12T21:34:11.113Z,96853.05
2023-12-12T21:36:37.717Z,96848.11
2023-12-12T21:39:04.398Z,96848.45
2023-12-12T21:41:31.376Z,96841.72
2023-12-12T21:43:58.508Z,96840.92
2023-12-12T21:46:26.301Z,96833.53
2023-12-12T21:48:53.106Z,96830.98
2023-12-12T21:51:19.968Z,96830.13
2023-12-12T21:53:46.640Z,96832.65
2023-12-12T21:56:23.940Z,96836.02
2023-12-12T21:58:58.411Z,96830.94
2023-12-12T22:01:25.531Z,96828.23
2023-12-12T22:03:52.416Z,96820.70
2023-12-12T22:06:19.167Z,96826.54
2023-12-12T22:08:45.709Z,96828.85
2023-12-12T22:11:19.818Z,96828.38
2023-12-12T22:13:48.076Z,96823.31
2023-12-12T22:16:26.183Z,96818.79
2023-12-12T22:18:57.720Z,96811.91
2023-12-12T22:21:29.206Z,96814.30
2023-12-12T22:23:55.912Z,96820.29
2023-12-12T22:26:22.583Z,96814.30
2023-12-12T22:28:49.449Z,96814.83
2023-12-12T22:31:16.085Z,96815.01
2023-12-12T22:33:42.789Z,96813.03
2023-12-12T22:36:19.230Z,96810.25
2023-12-12T22:38:46.732Z,96804.17
2023-12-12T22:41:17.616Z,96797.55
2023-12-12T22:43:44.323Z,96788.81
2023-12-12T22:46:11.242Z,96790.02
2023-12-12T22:48:38.190Z,96788.48
2023-12-12T22:51:05.895Z,96784.08
2023-12-12T22:53:32.834Z,96782.75
2023-12-12T22:56:02.048Z,96776.83
2023-12-12T22:58:28.617Z,96770.08
2023-12-12T23:00:55.740Z,96770.73
2023-12-12T23:03:25.579Z,96768.80
2023-12-12T23:05:52.378Z,96763.48
2023-12-12T23:08:19.189Z,96769.17
2023-12-12T23:10:46.531Z,96758.86
2023-12-12T23:13:13.557Z,96749.83
2023-12-12T23:15:40.433Z,96746.91
2023-12-12T23:18:18.284Z,96738.76
2023-12-12T23:20:45.045Z,96731.20
2023-12-12T23:23:11.913Z,96726.08
2023-12-12T23:25:38.610Z,96726.36
2023-12-12T23:28:05.441Z,96731.98
2023-12-12T23:30:32.024Z,96738.86
2023-12-12T23:32:58.671Z,96748.86
2023-12-12T23:35:25.385Z,96751.94
2023-12-12T23:37:52.086Z,96755.13
2023-12-12T23:40:21.398Z,96751.16
2023-12-12T23:42:48.279Z,96742.86
2023-12-12T23:45:17.624Z,96744.88
2023-12-12T23:47:49.058Z,96739.42
2023-12-12T23:50:16.210Z,96728.76
2023-12-12T23:52:43.774Z,96728.84
2023-12-12T23:55:10.694Z,96722.36
2023-12-12T23:57:37.465Z,96726.53
